createdAt,value
2018-09-20T00:01:47.303Z,5.20
2018-09-20T00:04:14.815Z,4.27
2018-09-20T00:06:42.727Z,5.00
2018-09-20T00:09:10.241Z,4.40
2018-09-20T00:11:37.836Z,4.37
2018-09-20T00:14:05.481Z,5.80
2018-09-20T00:16:33.082Z,4.63
2018-09-20T00:19:00.669Z,5.00
2018-09-20T00:21:28.209Z,4.87
2018-09-20T00:23:55.883Z,4.80
2018-09-20T00:26:23.391Z,5.10
2018-09-20T00:28:51.008Z,5.40
2018-09-20T00:31:18.618Z,4.03
2018-09-20T00:33:46.316Z,4.70
2018-09-20T00:36:13.945Z,5.30
2018-09-20T00:38:41.694Z,4.63
2018-09-20T00:41:09.331Z,5.63
2018-09-20T00:43:36.892Z,5.80
2018-09-20T00:46:04.770Z,5.30
2018-09-20T00:48:32.267Z,4.77
2018-09-20T00:51:01.992Z,4.80
2018-09-20T00:53:29.591Z,5.10
2018-09-20T00:55:57.164Z,5.03
2018-09-20T00:58:24.732Z,4.93
2018-09-20T01:00:52.434Z,4.87
2018-09-20T01:03:20.027Z,4.40
2018-09-20T01:05:47.604Z,5.50
2018-09-20T01:08:15.145Z,4.80
2018-09-20T01:10:42.724Z,4.17
2018-09-20T01:13:10.253Z,4.80
2018-09-20T01:15:37.865Z,4.20
2018-09-20T01:18:05.711Z,4.27
2018-09-20T01:20:33.184Z,4.30
2018-09-20T01:23:00.830Z,4.50
2018-09-20T01:25:28.368Z,4.90
2018-09-20T01:27:55.948Z,5.63
2018-09-20T01:30:23.599Z,4.83
2018-09-20T01:32:51.136Z,4.97
2018-09-20T01:35:18.832Z,4.70
2018-09-20T01:37:46.406Z,4.97
2018-09-20T01:40:14.059Z,5.00
2018-09-20T01:42:41.613Z,4.73
2018-09-20T01:45:09.142Z,5.17
2018-09-20T01:47:36.723Z,5.23
2018-09-20T01:50:04.638Z,4.50
2018-09-20T01:52:32.231Z,4.30
2018-09-20T01:54:59.822Z,4.87
2018-09-20T01:57:27.496Z,5.47
2018-09-20T01:59:55.007Z,4.73
2018-09-20T02:02:22.595Z,4.80
2018-09-20T02:04:50.173Z,5.17
2018-09-20T02:07:17.733Z,5.37
2018-09-20T02:09:45.260Z,4.90
2018-09-20T02:12:12.931Z,4.67
2018-09-20T02:14:40.478Z,4.50
2018-09-20T02:17:08.100Z,4.60
2018-09-20T02:19:35.717Z,5.60
2018-09-20T02:22:03.335Z,4.60
2018-09-20T02:24:30.927Z,4.43
2018-09-20T02:26:58.481Z,5.63
2018-09-20T02:29:26.042Z,5.97
2018-09-20T02:31:53.742Z,5.47
2018-09-20T02:34:21.310Z,5.10
2018-09-20T02:36:48.948Z,4.93
2018-09-20T02:39:16.515Z,5.30
2018-09-20T02:41:44.089Z,4.43
2018-09-20T02:44:11.799Z,5.60
2018-09-20T02:46:39.417Z,4.70
2018-09-20T02:49:07.002Z,5.10
2018-09-20T02:51:34.591Z,5.97
2018-09-20T02:54:02.340Z,6.30
2018-09-20T02:56:29.916Z,6.63
2018-09-20T02:58:57.583Z,6.07
2018-09-20T03:01:25.151Z,5.80
2018-09-20T03:03:52.976Z,5.20
2018-09-20T03:06:20.658Z,5.60
2018-09-20T03:08:48.320Z,5.67
2018-09-20T03:11:15.909Z,5.47
2018-09-20T03:13:43.442Z,5.50
2018-09-20T03:16:11.032Z,4.90
2018-09-20T03:18:38.533Z,6.03
2018-09-20T03:21:06.159Z,5.90
2018-09-20T03:23:33.651Z,5.30
2018-09-20T03:26:01.348Z,6.03
2018-09-20T03:28:28.908Z,5.20
2018-09-20T03:30:56.582Z,6.10
2018-09-20T03:33:51.350Z,4.80
2018-09-20T03:36:18.582Z,5.10
2018-09-20T03:38:45.857Z,4.90
2018-09-20T03:41:13.070Z,5.47
2018-09-20T03:43:40.621Z,5.40
2018-09-20T03:46:07.868Z,5.10
2018-09-20T03:48:35.043Z,6.27
2018-09-20T03:51:02.289Z,6.80
2018-09-20T03:53:29.538Z,5.80
2018-09-20T03:55:56.866Z,5.87
2018-09-20T03:58:24.066Z,5.90
2018-09-20T04:00:51.312Z,5.43
2018-09-20T04:03:18.565Z,5.60
2018-09-20T04:05:45.801Z,5.70
2018-09-20T04:08:13.501Z,6.30
2018-09-20T04:10:40.733Z,6.40
2018-09-20T04:13:07.973Z,5.63
2018-09-20T04:15:35.813Z,5.97
2018-09-20T04:18:02.990Z,5.70
2018-09-20T04:20:30.270Z,6.57
2018-09-20T04:22:57.535Z,6.27
2018-09-20T04:25:24.773Z,5.20
2018-09-20T04:27:52.011Z,7.27
2018-09-20T04:30:19.288Z,5.40
2018-09-20T04:32:46.504Z,5.20
2018-09-20T04:35:14.073Z,5.50
2018-09-20T04:37:41.769Z,5.80
2018-09-20T04:40:08.993Z,5.60
2018-09-20T04:42:36.269Z,5.13
2018-09-20T04:45:03.585Z,6.03
2018-09-20T04:47:30.841Z,5.90
2018-09-20T04:49:58.095Z,5.67
2018-09-20T04:52:25.353Z,6.33
2018-09-20T04:54:52.486Z,6.57
2018-09-20T04:57:19.680Z,4.93
2018-09-20T04:59:46.910Z,6.33
2018-09-20T05:02:14.161Z,6.30
2018-09-20T05:04:41.386Z,7.10
2018-09-20T05:07:08.585Z,6.13
2018-09-20T05:09:35.867Z,6.73
2018-09-20T05:12:03.097Z,6.37
2018-09-20T05:14:30.300Z,6.53
2018-09-20T05:16:57.478Z,6.83
2018-09-20T05:19:24.713Z,5.67
2018-09-20T05:21:51.977Z,6.87
2018-09-20T05:24:19.246Z,6.90
2018-09-20T05:26:46.455Z,7.10
2018-09-20T05:29:13.646Z,7.10
2018-09-20T05:31:40.886Z,7.00
2018-09-20T05:34:08.171Z,6.17
2018-09-20T05:36:35.365Z,6.70
2018-09-20T05:39:03.010Z,6.00
2018-09-20T05:41:30.209Z,6.80
2018-09-20T05:43:57.476Z,6.97
2018-09-20T05:46:24.686Z,6.87
2018-09-20T05:48:51.829Z,6.87
2018-09-20T05:51:19.005Z,6.90
2018-09-20T05:53:46.290Z,6.30
2018-09-20T05:56:13.740Z,7.70
2018-09-20T05:58:40.893Z,6.00
2018-09-20T06:01:08.066Z,6.00
2018-09-20T06:03:35.257Z,6.80
2018-09-20T06:06:02.457Z,6.30
2018-09-20T06:08:29.629Z,6.03
2018-09-20T06:10:56.792Z,6.17
2018-09-20T06:13:23.983Z,7.57
2018-09-20T06:15:51.165Z,6.70
2018-09-20T06:18:18.306Z,6.80
2018-09-20T06:20:45.562Z,6.30
2018-09-20T06:23:12.706Z,6.47
2018-09-20T06:25:39.857Z,6.97
2018-09-20T06:28:07.011Z,7.40
2018-09-20T06:30:34.158Z,6.10
2018-09-20T06:33:01.357Z,6.33
2018-09-20T06:35:28.993Z,5.47
2018-09-20T06:37:56.151Z,6.40
2018-09-20T06:40:23.289Z,7.13
2018-09-20T06:42:51.374Z,6.60
2018-09-20T06:45:18.529Z,5.73
2018-09-20T06:47:45.738Z,6.07
2018-09-20T06:50:12.920Z,5.93
2018-09-20T06:52:40.250Z,6.60
2018-09-20T06:55:07.626Z,5.80
2018-09-20T06:57:35.778Z,4.80
2018-09-20T07:00:04.357Z,5.30
2018-09-20T07:02:32.169Z,5.20
2018-09-20T07:04:59.327Z,5.97
2018-09-20T07:07:26.454Z,5.53
2018-09-20T07:09:53.673Z,5.80
2018-09-20T07:12:20.849Z,6.03
2018-09-20T07:14:48.096Z,4.93
2018-09-20T07:17:15.273Z,5.03
2018-09-20T07:19:42.721Z,4.87
2018-09-20T07:22:09.930Z,5.53
2018-09-20T07:24:37.110Z,4.70
2018-09-20T07:27:04.310Z,5.37
2018-09-20T07:29:31.554Z,5.50
2018-09-20T07:31:58.822Z,4.30
2018-09-20T07:34:26.097Z,4.70
2018-09-20T07:36:53.963Z,4.80
2018-09-20T07:39:21.189Z,5.07
2018-09-20T07:41:48.453Z,5.20
2018-09-20T07:44:15.670Z,4.67
2018-09-20T07:46:42.850Z,4.90
2018-09-20T07:49:10.086Z,5.10
2018-09-20T07:51:37.409Z,4.77
2018-09-20T07:54:04.613Z,4.43
2018-09-20T07:56:32.019Z,4.57
2018-09-20T07:59:00.169Z,4.80
2018-09-20T08:01:27.412Z,4.47
2018-09-20T08:03:54.614Z,5.23
2018-09-20T08:06:21.893Z,4.03
2018-09-20T08:08:49.279Z,3.93
2018-09-20T08:11:16.434Z,3.67
2018-09-20T08:13:43.630Z,3.83
2018-09-20T08:16:10.789Z,3.53
2018-09-20T08:18:37.940Z,3.93
2018-09-20T08:21:05.487Z,4.33
2018-09-20T08:23:32.638Z,3.37
2018-09-20T08:26:00.030Z,3.50
2018-09-20T08:28:27.273Z,3.53
2018-09-20T08:30:54.425Z,4.30
2018-09-20T08:33:21.678Z,4.20
2018-09-20T08:35:48.846Z,5.60
2018-09-20T08:38:16.009Z,3.77
2018-09-20T08:40:43.185Z,3.37
2018-09-20T08:43:10.354Z,3.97
2018-09-20T08:45:37.522Z,3.60
2018-09-20T08:48:04.709Z,3.33
2018-09-20T08:50:31.852Z,3.97
2018-09-20T08:52:59.017Z,3.40
2018-09-20T08:55:26.194Z,4.37
2018-09-20T08:57:56.165Z,3.70
2018-09-20T09:00:23.743Z,3.40
2018-09-20T09:02:50.893Z,3.60
2018-09-20T09:05:18.103Z,2.87
2018-09-20T09:07:45.491Z,3.90
2018-09-20T09:10:12.722Z,3.70
2018-09-20T09:12:39.905Z,3.20
2018-09-20T09:15:07.064Z,3.30
2018-09-20T09:17:34.253Z,4.00
2018-09-20T09:20:01.414Z,3.67
2018-09-20T09:22:28.665Z,3.30
2018-09-20T09:24:56.141Z,3.73
2018-09-20T09:27:23.297Z,3.27
2018-09-20T09:29:50.657Z,3.47
2018-09-20T09:32:17.893Z,3.20
2018-09-20T09:34:45.038Z,3.40
2018-09-20T09:37:12.244Z,2.50
2018-09-20T09:39:39.419Z,3.03
2018-09-20T09:42:06.652Z,3.80
2018-09-20T09:44:33.833Z,3.10
2018-09-20T09:47:01.566Z,3.00
2018-09-20T09:49:28.738Z,3.50
2018-09-20T09:51:55.911Z,2.30
2018-09-20T09:54:23.172Z,2.40
2018-09-20T09:56:50.310Z,2.47
2018-09-20T09:59:17.475Z,2.77
2018-09-20T10:01:45.354Z,2.70
2018-09-20T10:04:12.617Z,3.20
2018-09-20T10:06:40.485Z,2.90
2018-09-20T10:09:08.697Z,2.53
2018-09-20T10:11:35.945Z,2.47
2018-09-20T10:14:03.122Z,3.10
2018-09-20T10:16:30.298Z,3.10
2018-09-20T10:18:57.495Z,3.47
2018-09-20T10:21:24.673Z,4.43
2018-09-20T10:23:51.965Z,3.47
2018-09-20T10:26:20.017Z,3.00
2018-09-20T10:28:47.250Z,3.23
2018-09-20T10:31:14.436Z,3.10
2018-09-20T10:33:41.570Z,3.50
2018-09-20T10:36:08.723Z,3.20
2018-09-20T10:38:35.878Z,2.83
2018-09-20T10:41:03.094Z,3.60
2018-09-20T10:43:30.254Z,3.33
2018-09-20T10:45:57.434Z,3.17
2018-09-20T10:48:24.601Z,3.10
2018-09-20T10:50:51.762Z,3.80
2018-09-20T10:53:19.063Z,3.10
2018-09-20T10:55:46.222Z,3.43
2018-09-20T10:58:13.398Z,2.70
2018-09-20T11:00:40.550Z,3.70
2018-09-20T11:03:07.730Z,2.90
2018-09-20T11:05:34.865Z,3.00
2018-09-20T11:08:02.010Z,3.23
2018-09-20T11:10:29.201Z,3.37
2018-09-20T11:12:56.349Z,3.50
2018-09-20T11:15:23.513Z,4.00
2018-09-20T11:17:50.678Z,2.83
2018-09-20T11:20:17.861Z,3.03
2018-09-20T11:22:45.082Z,3.30
2018-09-20T11:25:12.269Z,2.73
2018-09-20T11:27:39.437Z,3.50
2018-09-20T11:30:06.640Z,2.60
2018-09-20T11:32:33.798Z,3.30
2018-09-20T11:35:00.970Z,3.33
2018-09-20T11:37:28.143Z,4.03
2018-09-20T11:39:55.832Z,3.47
2018-09-20T11:42:23.018Z,3.57
2018-09-20T11:44:50.181Z,3.40
2018-09-20T11:47:17.321Z,3.83
2018-09-20T11:49:44.493Z,3.53
2018-09-20T11:52:12.258Z,4.40
2018-09-20T11:54:39.435Z,3.80
2018-09-20T11:57:06.565Z,4.43
2018-09-20T11:59:33.735Z,4.50
2018-09-20T12:02:00.907Z,5.40
2018-09-20T12:04:28.070Z,4.63
2018-09-20T12:06:55.938Z,3.53
2018-09-20T12:09:23.078Z,3.60
2018-09-20T12:11:50.281Z,3.80
2018-09-20T12:14:17.454Z,3.50
2018-09-20T12:16:44.630Z,3.70
2018-09-20T12:19:11.772Z,3.20
2018-09-20T12:21:38.926Z,3.97
2018-09-20T12:24:06.100Z,3.63
2018-09-20T12:26:33.250Z,4.67
2018-09-20T12:29:00.397Z,3.63
2018-09-20T12:31:27.594Z,3.57
2018-09-20T12:33:54.703Z,4.57
2018-09-20T12:36:22.145Z,3.93
2018-09-20T12:38:49.412Z,3.87
2018-09-20T12:41:16.587Z,4.70
2018-09-20T12:43:43.922Z,4.43
2018-09-20T12:46:11.171Z,3.40
2018-09-20T12:48:38.325Z,3.57
2018-09-20T12:51:05.974Z,3.70
2018-09-20T12:53:33.242Z,4.17
2018-09-20T12:56:00.490Z,3.67
2018-09-20T12:58:33.586Z,4.07
2018-09-20T13:01:00.857Z,4.00
2018-09-20T13:03:28.039Z,3.67
2018-09-20T13:05:55.242Z,4.50
2018-09-20T13:08:22.450Z,3.80
2018-09-20T13:10:49.615Z,3.50
2018-09-20T13:13:16.895Z,3.57
2018-09-20T13:15:44.070Z,3.43
2018-09-20T13:18:11.278Z,4.40
2018-09-20T13:20:38.492Z,3.63
2018-09-20T13:23:05.694Z,3.63
2018-09-20T13:25:32.995Z,3.70
2018-09-20T13:28:00.148Z,3.93
2018-09-20T13:30:27.337Z,3.87
2018-09-20T13:32:54.576Z,2.93
2018-09-20T13:35:21.788Z,2.90
2018-09-20T13:37:49.004Z,4.17
2018-09-20T13:40:16.271Z,3.50
2018-09-20T13:42:43.483Z,3.50
2018-09-20T13:45:10.685Z,3.03
2018-09-20T13:47:37.902Z,3.00
2018-09-20T13:50:05.142Z,2.80
2018-09-20T13:52:32.344Z,3.13
2018-09-20T13:54:59.538Z,3.50
2018-09-20T13:57:26.738Z,3.10
2018-09-20T13:59:53.935Z,2.80
2018-09-20T14:02:21.194Z,2.90
2018-09-20T14:04:48.358Z,3.10
2018-09-20T14:07:15.581Z,3.17
2018-09-20T14:09:42.874Z,2.80
2018-09-20T14:12:10.057Z,2.67
2018-09-20T14:14:37.249Z,2.90
2018-09-20T14:17:04.426Z,3.57
2018-09-20T14:19:31.598Z,2.80
2018-09-20T14:21:58.810Z,2.90
2018-09-20T14:24:26.070Z,3.00
2018-09-20T14:26:53.279Z,3.63
2018-09-20T14:29:20.474Z,3.20
2018-09-20T14:31:47.649Z,3.80
2018-09-20T14:34:14.859Z,3.40
2018-09-20T14:36:42.158Z,3.67
2018-09-20T14:39:11.015Z,3.57
2018-09-20T14:41:38.506Z,3.30
2018-09-20T14:44:05.809Z,3.27
2018-09-20T14:46:33.022Z,3.80
2018-09-20T14:49:00.234Z,4.07
2018-09-20T14:51:28.217Z,4.30
2018-09-20T14:53:55.415Z,4.10
2018-09-20T14:56:22.629Z,3.60
2018-09-20T14:58:50.090Z,3.87
2018-09-20T15:01:17.321Z,3.43
2018-09-20T15:03:44.593Z,4.00
2018-09-20T15:06:11.809Z,4.23
2018-09-20T15:08:39.004Z,4.30
2018-09-20T15:11:06.287Z,4.70
2018-09-20T15:13:33.522Z,3.47
2018-09-20T15:16:00.723Z,4.70
2018-09-20T15:18:27.907Z,4.20
2018-09-20T15:20:55.078Z,3.90
2018-09-20T15:23:22.329Z,4.17
2018-09-20T15:25:49.538Z,4.27
2018-09-20T15:28:16.786Z,3.93
2018-09-20T15:30:44.029Z,4.23
2018-09-20T15:33:11.326Z,4.00
2018-09-20T15:35:39.645Z,3.70
2018-09-20T15:38:06.850Z,3.70
2018-09-20T15:40:34.076Z,3.40
2018-09-20T15:43:01.577Z,4.17
2018-09-20T15:45:28.773Z,3.13
2018-09-20T15:48:00.973Z,3.17
2018-09-20T15:50:29.215Z,3.77
2018-09-20T15:52:56.497Z,3.87
2018-09-20T15:55:23.741Z,3.40
2018-09-20T15:57:52.025Z,2.90
2018-09-20T16:00:19.250Z,3.63
2018-09-20T16:02:46.448Z,3.13
2018-09-20T16:05:13.689Z,2.90
2018-09-20T16:07:40.939Z,3.40
2018-09-20T16:10:08.201Z,3.63
2018-09-20T16:12:35.421Z,3.63
2018-09-20T16:15:02.666Z,3.17
2018-09-20T16:17:29.978Z,4.00
2018-09-20T16:19:57.306Z,3.57
2018-09-20T16:22:24.566Z,4.00
2018-09-20T16:24:51.838Z,3.50
2018-09-20T16:27:19.070Z,3.53
2018-09-20T16:30:15.042Z,3.60
2018-09-20T16:32:58.348Z,3.67
2018-09-20T16:36:06.667Z,3.40
2018-09-20T16:38:47.759Z,3.40
2018-09-20T16:41:22.651Z,3.10
2018-09-20T16:43:49.902Z,3.60
2018-09-20T16:46:17.125Z,3.30
2018-09-20T16:48:44.293Z,4.23
2018-09-20T16:51:11.475Z,2.90
2018-09-20T16:53:38.722Z,3.10
2018-09-20T16:56:06.319Z,3.70
2018-09-20T16:58:34.351Z,3.70
2018-09-20T17:01:01.594Z,4.20
2018-09-20T17:03:28.770Z,4.03
2018-09-20T17:05:56.023Z,3.70
2018-09-20T17:08:23.194Z,6.30
2018-09-20T17:10:50.413Z,8.50
2018-09-20T17:13:18.225Z,6.23
2018-09-20T17:15:45.395Z,4.97
2018-09-20T17:18:12.653Z,3.83
2018-09-20T17:20:39.845Z,4.30
2018-09-20T17:23:07.038Z,4.47
2018-09-20T17:25:34.248Z,3.70
2018-09-20T17:28:02.114Z,3.50
2018-09-20T17:30:29.293Z,3.70
2018-09-20T17:32:56.503Z,4.13
2018-09-20T17:35:24.213Z,3.27
2018-09-20T17:37:53.383Z,3.33
2018-09-20T17:40:22.539Z,3.57
2018-09-20T17:42:52.787Z,3.53
2018-09-20T17:45:20.299Z,3.57
2018-09-20T17:47:47.765Z,3.63
2018-09-20T17:50:15.023Z,3.50
2018-09-20T17:52:43.173Z,4.70
2018-09-20T17:55:11.204Z,6.37
2018-09-20T17:57:38.912Z,3.70
2018-09-20T18:00:06.361Z,3.90
2018-09-20T18:02:33.675Z,4.53
2018-09-20T18:05:00.947Z,5.10
2018-09-20T18:07:28.730Z,5.33
2018-09-20T18:09:56.058Z,5.83
2018-09-20T18:12:23.249Z,7.20
2018-09-20T18:14:50.433Z,7.77
2018-09-20T18:17:17.607Z,7.60
2018-09-20T18:19:44.814Z,7.37
2018-09-20T18:22:12.048Z,7.80
2018-09-20T18:24:39.269Z,7.80
2018-09-20T18:27:06.506Z,7.57
2018-09-20T18:29:33.715Z,6.10
2018-09-20T18:32:00.927Z,5.37
2018-09-20T18:34:28.106Z,5.43
2018-09-20T18:36:55.309Z,6.13
2018-09-20T18:39:22.485Z,5.60
2018-09-20T18:41:49.678Z,5.73
2018-09-20T18:44:16.947Z,4.77
2018-09-20T18:46:44.133Z,4.87
2018-09-20T18:49:11.326Z,4.50
2018-09-20T18:51:38.543Z,6.93
2018-09-20T18:54:05.802Z,6.97
2018-09-20T18:56:33.085Z,4.63
2018-09-20T18:59:00.566Z,4.70
2018-09-20T19:01:27.750Z,4.50
2018-09-20T19:03:54.970Z,4.73
2018-09-20T19:06:22.943Z,4.03
2018-09-20T19:08:50.151Z,3.83
2018-09-20T19:11:17.310Z,4.70
2018-09-20T19:13:44.509Z,4.60
2018-09-20T19:16:11.712Z,4.13
2018-09-20T19:18:39.253Z,6.77
2018-09-20T19:21:06.463Z,5.53
2018-09-20T19:23:33.685Z,6.33
2018-09-20T19:26:00.884Z,6.07
2018-09-20T19:28:28.084Z,5.43
2018-09-20T19:30:55.249Z,4.90
2018-09-20T19:33:22.469Z,4.27
2018-09-20T19:35:49.650Z,4.23
2018-09-20T19:38:16.845Z,4.83
2018-09-20T19:40:44.051Z,5.00
2018-09-20T19:43:11.924Z,4.93
2018-09-20T19:45:39.109Z,4.73
2018-09-20T19:48:06.318Z,4.37
2018-09-20T19:50:33.623Z,4.43
2018-09-20T19:53:00.797Z,4.57
2018-09-20T19:55:27.990Z,4.20
2018-09-20T19:57:55.184Z,4.47
2018-09-20T20:00:22.401Z,4.60
2018-09-20T20:02:49.630Z,4.40
2018-09-20T20:05:16.853Z,4.20
2018-09-20T20:07:44.057Z,4.00
2018-09-20T20:10:11.281Z,3.93
2018-09-20T20:12:38.453Z,4.67
2018-09-20T20:15:05.629Z,4.80
2018-09-20T20:17:32.810Z,4.90
2018-09-20T20:20:00.026Z,5.23
2018-09-20T20:22:27.230Z,5.00
2018-09-20T20:24:54.409Z,4.33
2018-09-20T20:27:21.613Z,4.77
2018-09-20T20:29:48.781Z,4.17
2018-09-20T20:32:15.973Z,4.30
2018-09-20T20:34:43.156Z,4.40
2018-09-20T20:37:10.323Z,4.20
2018-09-20T20:39:37.547Z,4.40
2018-09-20T20:42:04.765Z,4.43
2018-09-20T20:44:31.974Z,5.07
2018-09-20T20:46:59.245Z,4.60
2018-09-20T20:49:26.414Z,4.60
2018-09-20T20:51:53.608Z,3.73
2018-09-20T20:54:20.813Z,3.80
2018-09-20T20:56:48.062Z,4.10
2018-09-20T20:59:15.263Z,4.37
2018-09-20T21:01:43.488Z,4.70
2018-09-20T21:04:10.665Z,4.40
2018-09-20T21:06:37.873Z,4.10
2018-09-20T21:09:06.987Z,4.40
2018-09-20T21:11:34.165Z,4.40
2018-09-20T21:14:01.361Z,4.37
2018-09-20T21:16:28.539Z,4.13
2018-09-20T21:18:55.720Z,3.90
2018-09-20T21:21:22.914Z,4.20
2018-09-20T21:23:50.120Z,5.67
2018-09-20T21:26:17.361Z,4.20
2018-09-20T21:28:44.542Z,4.37
2018-09-20T21:31:11.746Z,4.20
2018-09-20T21:33:38.942Z,3.87
2018-09-20T21:36:06.172Z,5.10
2018-09-20T21:38:33.344Z,4.70
2018-09-20T21:41:00.530Z,4.67
2018-09-20T21:43:27.779Z,4.97
2018-09-20T21:45:55.013Z,4.50
2018-09-20T21:48:22.254Z,4.70
2018-09-20T21:50:49.449Z,5.03
2018-09-20T21:53:16.671Z,4.23
2018-09-20T21:55:43.862Z,4.50
2018-09-20T21:58:11.046Z,4.40
2018-09-20T22:00:38.262Z,4.23
2018-09-20T22:03:05.478Z,4.37
2018-09-20T22:05:33.712Z,4.53
2018-09-20T22:08:00.917Z,4.10
2018-09-20T22:10:28.205Z,4.00
2018-09-20T22:12:55.994Z,3.80
2018-09-20T22:15:26.194Z,4.53
2018-09-20T22:17:54.061Z,4.60
2018-09-20T22:20:31.195Z,3.57
2018-09-20T22:22:58.840Z,4.20
2018-09-20T22:25:26.349Z,4.20
2018-09-20T22:27:53.721Z,3.70
2018-09-20T22:30:20.986Z,4.10
2018-09-20T22:32:48.261Z,4.47
2018-09-20T22:35:17.517Z,4.00
2018-09-20T22:37:44.993Z,4.50
2018-09-20T22:40:12.238Z,4.50
2018-09-20T22:42:39.465Z,4.70
2018-09-20T22:45:06.831Z,4.57
2018-09-20T22:47:34.484Z,4.07
2018-09-20T22:50:02.895Z,4.23
2018-09-20T22:52:30.200Z,4.33
2018-09-20T22:54:57.505Z,4.70
2018-09-20T22:57:24.722Z,4.13
2018-09-20T22:59:52.031Z,4.30
2018-09-20T23:02:19.408Z,4.20
2018-09-20T23:04:46.804Z,4.60
2018-09-20T23:07:14.113Z,4.67
2018-09-20T23:09:41.465Z,4.87
2018-09-20T23:12:08.793Z,4.20
2018-09-20T23:14:36.079Z,4.20
2018-09-20T23:17:04.231Z,4.83
2018-09-20T23:19:31.468Z,4.63
2018-09-20T23:21:58.977Z,5.03
2018-09-20T23:24:27.326Z,5.33
2018-09-20T23:26:54.716Z,3.80
2018-09-20T23:29:22.003Z,4.53
2018-09-20T23:31:49.257Z,4.73
2018-09-20T23:34:16.515Z,4.23
2018-09-20T23:36:44.057Z,4.30
2018-09-20T23:39:12.374Z,4.87
2018-09-20T23:41:40.135Z,4.93
2018-09-20T23:44:08.399Z,4.70
2018-09-20T23:46:35.769Z,4.90
2018-09-20T23:49:03.139Z,4.53
2018-09-20T23:51:30.772Z,5.00
2018-09-20T23:53:58.331Z,4.63
2018-09-20T23:56:26.704Z,5.00
2018-09-20T23:58:53.906Z,5.00
